sensor_id;sensor_type;location;lat;lon;timestamp;pressure;altitude;pressure_sealevel;temperature;humidity
21879;BME280;27908;42.708;23.278;2023-04-12T00:01:35;63475.38;;;8.99;99.99
21879;BME280;27908;42.708;23.278;2023-04-12T00:04:00;63491.16;;;9.02;100.00
21879;BME280;27908;42.708;23.278;2023-04-12T00:06:28;63493.19;;;9.01;99.73
21879;BME280;27908;42.708;23.278;2023-04-12T00:09:00;63538.50;;;9.08;100.00
21879;BME280;27908;42.708;23.278;2023-04-12T00:11:26;63507.34;;;8.93;100.00
21879;BME280;27908;42.708;23.278;2023-04-12T00:13:53;63518.19;;;9.08;100.00
21879;BME280;27908;42.708;23.278;2023-04-12T00:16:19;63525.31;;;9.10;99.56
21879;BME280;27908;42.708;23.278;2023-04-12T00:18:44;63528.31;;;9.06;99.54
21879;BME280;27908;42.708;23.278;2023-04-12T00:21:10;63507.47;;;9.05;99.89
21879;BME280;27908;42.708;23.278;2023-04-12T00:23:36;63552.84;;;9.15;99.15
21879;BME280;27908;42.708;23.278;2023-04-12T00:26:05;63494.81;;;9.10;99.24
21879;BME280;27908;42.708;23.278;2023-04-12T00:28:30;63488.06;;;8.96;100.00
21879;BME280;27908;42.708;23.278;2023-04-12T00:30:56;63516.53;;;8.97;100.00
21879;BME280;27908;42.708;23.278;2023-04-12T00:33:22;63541.41;;;8.94;100.00
21879;BME280;27908;42.708;23.278;2023-04-12T00:35:47;63476.19;;;8.80;100.00
21879;BME280;27908;42.708;23.278;2023-04-12T00:38:12;63494.97;;;8.79;100.00
21879;BME280;27908;42.708;23.278;2023-04-12T00:40:40;63525.44;;;8.76;100.00
21879;BME280;27908;42.708;23.278;2023-04-12T00:43:05;63507.09;;;8.73;100.00
21879;BME280;27908;42.708;23.278;2023-04-12T00:45:32;63464.72;;;8.54;100.00
21879;BME280;27908;42.708;23.278;2023-04-12T00:47:57;63511.56;;;8.65;100.00
21879;BME280;27908;42.708;23.278;2023-04-12T00:50:23;63452.03;;;8.57;100.00
21879;BME280;27908;42.708;23.278;2023-04-12T00:52:49;63448.41;;;8.51;100.00
21879;BME280;27908;42.708;23.278;2023-04-12T00:55:16;63472.84;;;8.55;100.00
21879;BME280;27908;42.708;23.278;2023-04-12T00:57:42;63473.97;;;8.63;100.00
21879;BME280;27908;42.708;23.278;2023-04-12T01:00:09;63441.34;;;8.54;100.00
21879;BME280;27908;42.708;23.278;2023-04-12T01:02:39;63416.94;;;8.50;100.00
21879;BME280;27908;42.708;23.278;2023-04-12T01:05:07;63479.94;;;8.54;100.00
21879;BME280;27908;42.708;23.278;2023-04-12T01:07:42;63492.19;;;8.59;100.00
21879;BME280;27908;42.708;23.278;2023-04-12T01:13:14;63496.75;;;8.56;100.00
21879;BME280;27908;42.708;23.278;2023-04-12T01:18:41;63477.78;;;8.43;100.00
21879;BME280;27908;42.708;23.278;2023-04-12T01:21:14;63413.28;;;8.42;100.00
21879;BME280;27908;42.708;23.278;2023-04-12T01:24:07;63409.63;;;8.33;100.00
21879;BME280;27908;42.708;23.278;2023-04-12T01:26:42;63440.03;;;8.28;100.00
21879;BME280;27908;42.708;23.278;2023-04-12T01:29:17;63430.84;;;8.24;100.00
21879;BME280;27908;42.708;23.278;2023-04-12T01:31:56;63431.41;;;8.27;100.00
21879;BME280;27908;42.708;23.278;2023-04-12T01:34:24;63397.34;;;8.24;100.00
21879;BME280;27908;42.708;23.278;2023-04-12T01:36:51;63454.25;;;8.30;100.00
21879;BME280;27908;42.708;23.278;2023-04-12T01:39:17;63440.63;;;8.36;100.00
21879;BME280;27908;42.708;23.278;2023-04-12T01:41:42;63466.53;;;8.37;100.00
21879;BME280;27908;42.708;23.278;2023-04-12T01:44:16;63627.44;;;8.35;100.00
21879;BME280;27908;42.708;23.278;2023-04-12T01:46:45;63452.47;;;8.50;100.00
21879;BME280;27908;42.708;23.278;2023-04-12T01:49:12;63464.22;;;8.54;100.00
21879;BME280;27908;42.708;23.278;2023-04-12T01:51:49;63477.38;;;8.52;100.00
21879;BME280;27908;42.708;23.278;2023-04-12T01:54:27;63481.41;;;8.49;100.00
21879;BME280;27908;42.708;23.278;2023-04-12T01:56:59;63475.38;;;8.55;100.00
21879;BME280;27908;42.708;23.278;2023-04-12T01:59:30;63431.16;;;8.51;100.00
21879;BME280;27908;42.708;23.278;2023-04-12T02:01:57;63402.66;;;8.44;100.00
21879;BME280;27908;42.708;23.278;2023-04-12T02:04:23;63465.13;;;8.48;100.00
21879;BME280;27908;42.708;23.278;2023-04-12T02:06:51;63450.81;;;8.39;100.00
21879;BME280;27908;42.708;23.278;2023-04-12T02:09:18;63442.13;;;8.35;100.00
21879;BME280;27908;42.708;23.278;2023-04-12T02:11:47;63408.47;;;8.20;100.00
21879;BME280;27908;42.708;23.278;2023-04-12T02:14:13;63409.44;;;8.16;100.00
21879;BME280;27908;42.708;23.278;2023-04-12T02:16:38;63393.16;;;8.15;100.00
21879;BME280;27908;42.708;23.278;2023-04-12T02:19:06;63401.66;;;8.06;100.00
21879;BME280;27908;42.708;23.278;2023-04-12T02:21:42;63428.59;;;8.08;100.00
21879;BME280;27908;42.708;23.278;2023-04-12T02:24:09;63399.13;;;8.06;100.00
21879;BME280;27908;42.708;23.278;2023-04-12T02:26:35;63393.03;;;8.05;100.00
21879;BME280;27908;42.708;23.278;2023-04-12T02:29:02;63368.03;;;7.93;100.00
21879;BME280;27908;42.708;23.278;2023-04-12T02:31:28;63395.47;;;7.98;100.00
21879;BME280;27908;42.708;23.278;2023-04-12T02:33:55;63398.06;;;8.03;100.00
21879;BME280;27908;42.708;23.278;2023-04-12T02:36:21;63390.91;;;7.96;100.00
21879;BME280;27908;42.708;23.278;2023-04-12T02:38:46;63341.09;;;7.89;100.00
21879;BME280;27908;42.708;23.278;2023-04-12T02:41:18;63392.91;;;7.95;100.00
21879;BME280;27908;42.708;23.278;2023-04-12T02:43:45;63396.59;;;8.06;100.00
21879;BME280;27908;42.708;23.278;2023-04-12T02:46:14;63442.88;;;8.12;100.00
21879;BME280;27908;42.708;23.278;2023-04-12T02:48:40;63458.13;;;8.14;100.00
21879;BME280;27908;42.708;23.278;2023-04-12T02:51:05;63386.63;;;8.21;100.00
21879;BME280;27908;42.708;23.278;2023-04-12T02:53:31;63442.50;;;8.23;100.00
21879;BME280;27908;42.708;23.278;2023-04-12T02:55:56;63496.41;;;8.31;100.00
21879;BME280;27908;42.708;23.278;2023-04-12T02:58:26;63426.97;;;8.40;100.00
21879;BME280;27908;42.708;23.278;2023-04-12T03:00:52;63449.88;;;8.45;100.00
21879;BME280;27908;42.708;23.278;2023-04-12T03:03:17;63449.25;;;8.35;100.00
21879;BME280;27908;42.708;23.278;2023-04-12T03:05:43;63469.25;;;8.51;100.00
21879;BME280;27908;42.708;23.278;2023-04-12T03:08:12;63471.34;;;8.56;100.00
21879;BME280;27908;42.708;23.278;2023-04-12T03:10:37;63453.09;;;8.58;100.00
21879;BME280;27908;42.708;23.278;2023-04-12T03:13:03;63470.63;;;8.41;100.00
21879;BME280;27908;42.708;23.278;2023-04-12T03:15:29;63517.09;;;8.58;100.00
21879;BME280;27908;42.708;23.278;2023-04-12T03:17:55;63472.94;;;8.62;100.00
21879;BME280;27908;42.708;23.278;2023-04-12T03:20:20;63470.97;;;8.68;100.00
21879;BME280;27908;42.708;23.278;2023-04-12T03:22:48;63505.59;;;8.74;100.00
21879;BME280;27908;42.708;23.278;2023-04-12T03:25:14;63472.13;;;8.79;100.00
21879;BME280;27908;42.708;23.278;2023-04-12T03:27:39;63500.09;;;8.84;100.00
21879;BME280;27908;42.708;23.278;2023-04-12T03:30:05;63481.38;;;8.90;100.00
21879;BME280;27908;42.708;23.278;2023-04-12T03:32:31;63512.41;;;8.93;100.00
21879;BME280;27908;42.708;23.278;2023-04-12T03:34:56;63493.66;;;8.97;100.00
21879;BME280;27908;42.708;23.278;2023-04-12T03:37:22;63529.78;;;9.00;100.00
21879;BME280;27908;42.708;23.278;2023-04-12T03:39:47;63495.69;;;8.96;100.00
21879;BME280;27908;42.708;23.278;2023-04-12T03:42:13;63565.44;;;9.07;100.00
21879;BME280;27908;42.708;23.278;2023-04-12T03:44:39;63535.94;;;9.06;100.00
21879;BME280;27908;42.708;23.278;2023-04-12T03:47:05;63543.97;;;8.96;100.00
21879;BME280;27908;42.708;23.278;2023-04-12T03:49:30;63521.53;;;8.92;100.00
21879;BME280;27908;42.708;23.278;2023-04-12T03:51:57;63542.47;;;8.97;100.00
21879;BME280;27908;42.708;23.278;2023-04-12T03:54:22;63544.63;;;9.07;100.00
21879;BME280;27908;42.708;23.278;2023-04-12T03:56:48;63502.81;;;8.54;100.00
21879;BME280;27908;42.708;23.278;2023-04-12T03:59:13;63519.16;;;9.04;100.00
21879;BME280;27908;42.708;23.278;2023-04-12T04:01:40;63516.53;;;8.97;100.00
21879;BME280;27908;42.708;23.278;2023-04-12T04:04:05;63495.22;;;9.01;100.00
21879;BME280;27908;42.708;23.278;2023-04-12T04:06:31;63530.78;;;8.98;100.00
21879;BME280;27908;42.708;23.278;2023-04-12T04:08:58;63495.69;;;8.96;100.00
21879;BME280;27908;42.708;23.278;2023-04-12T04:11:24;63541.97;;;8.99;100.00
21879;BME280;27908;42.708;23.278;2023-04-12T04:13:50;63496.63;;;8.90;100.00
21879;BME280;27908;42.708;23.278;2023-04-12T04:16:15;63482.94;;;8.91;100.00
21879;BME280;27908;42.708;23.278;2023-04-12T04:18:42;63490.84;;;8.72;100.00
21879;BME280;27908;42.708;23.278;2023-04-12T04:21:07;63470.72;;;8.92;100.00
21879;BME280;27908;42.708;23.278;2023-04-12T04:23:33;63512.91;;;8.91;100.00
21879;BME280;27908;42.708;23.278;2023-04-12T04:26:06;63544.94;;;8.92;100.00
21879;BME280;27908;42.708;23.278;2023-04-12T04:28:38;63524.03;;;8.87;100.00
21879;BME280;27908;42.708;23.278;2023-04-12T04:31:04;63520.03;;;8.93;100.00
21879;BME280;27908;42.708;23.278;2023-04-12T04:33:33;63485.47;;;8.91;100.00
21879;BME280;27908;42.708;23.278;2023-04-12T04:36:00;63508.28;;;8.87;100.00
21879;BME280;27908;42.708;23.278;2023-04-12T04:38:26;63487.44;;;8.86;100.00
21879;BME280;27908;42.708;23.278;2023-04-12T04:40:52;63461.41;;;8.76;100.00
21879;BME280;27908;42.708;23.278;2023-04-12T04:43:18;63541.28;;;8.84;100.00
21879;BME280;27908;42.708;23.278;2023-04-12T04:45:45;63487.88;;;8.82;100.00
21879;BME280;27908;42.708;23.278;2023-04-12T04:48:12;63502.69;;;8.86;100.00
21879;BME280;27908;42.708;23.278;2023-04-12T04:50:38;63511.34;;;8.87;100.00
21879;BME280;27908;42.708;23.278;2023-04-12T04:53:03;63484.97;;;8.91;100.00
21879;BME280;27908;42.708;23.278;2023-04-12T04:55:29;63510.84;;;8.89;100.00
21879;BME280;27908;42.708;23.278;2023-04-12T04:57:55;63493.47;;;8.80;100.00
21879;BME280;27908;42.708;23.278;2023-04-12T05:00:22;63490.03;;;8.91;100.00
21879;BME280;27908;42.708;23.278;2023-04-12T05:02:49;63536.34;;;8.96;100.00
21879;BME280;27908;42.708;23.278;2023-04-12T05:05:16;63517.00;;;8.92;100.00
21879;BME280;27908;42.708;23.278;2023-04-12T05:07:41;63486.38;;;8.83;100.00
21879;BME280;27908;42.708;23.278;2023-04-12T05:10:08;63494.63;;;8.90;100.00
21879;BME280;27908;42.708;23.278;2023-04-12T05:12:34;63511.97;;;8.97;99.81
21879;BME280;27908;42.708;23.278;2023-04-12T05:15:00;63526.16;;;8.94;99.07
21879;BME280;27908;42.708;23.278;2023-04-12T05:17:26;63508.81;;;8.89;97.74
21879;BME280;27908;42.708;23.278;2023-04-12T05:19:52;63509.81;;;8.88;96.91
21879;BME280;27908;42.708;23.278;2023-04-12T05:22:18;63529.75;;;8.97;95.06
21879;BME280;27908;42.708;23.278;2023-04-12T05:24:48;63521.16;;;9.01;95.67
21879;BME280;27908;42.708;23.278;2023-04-12T05:27:14;63581.19;;;9.05;96.47
21879;BME280;27908;42.708;23.278;2023-04-12T05:29:41;63531.38;;;9.06;95.34
21879;BME280;27908;42.708;23.278;2023-04-12T05:32:07;63581.78;;;9.11;95.66
21879;BME280;27908;42.708;23.278;2023-04-12T05:34:32;63532.91;;;9.08;95.97
21879;BME280;27908;42.708;23.278;2023-04-12T05:36:58;63549.25;;;9.14;93.65
21879;BME280;27908;42.708;23.278;2023-04-12T05:39:25;63559.41;;;9.11;93.88
21879;BME280;27908;42.708;23.278;2023-04-12T05:41:51;63564.06;;;9.18;91.52
21879;BME280;27908;42.708;23.278;2023-04-12T05:44:17;63532.53;;;9.17;89.71
21879;BME280;27908;42.708;23.278;2023-04-12T05:46:42;63557.50;;;9.24;89.40
21879;BME280;27908;42.708;23.278;2023-04-12T05:49:08;63502.78;;;8.96;88.28
21879;BME280;27908;42.708;23.278;2023-04-12T05:51:33;63570.78;;;9.27;88.90
21879;BME280;27908;42.708;23.278;2023-04-12T05:53:58;63572.41;;;9.36;88.11
21879;BME280;27908;42.708;23.278;2023-04-12T05:56:25;63558.13;;;9.32;87.63
21879;BME280;27908;42.708;23.278;2023-04-12T05:58:50;63573.94;;;9.35;86.13
21879;BME280;27908;42.708;23.278;2023-04-12T06:01:16;63553.47;;;9.25;86.54
21879;BME280;27908;42.708;23.278;2023-04-12T06:03:43;63508.47;;;9.04;87.92
21879;BME280;27908;42.708;23.278;2023-04-12T06:06:09;63578.75;;;9.13;87.60
21879;BME280;27908;42.708;23.278;2023-04-12T06:08:35;63548.72;;;9.11;88.45
21879;BME280;27908;42.708;23.278;2023-04-12T06:11:05;63547.28;;;9.19;87.21
21879;BME280;27908;42.708;23.278;2023-04-12T06:13:32;63518.13;;;9.03;88.92
21879;BME280;27908;42.708;23.278;2023-04-12T06:15:57;63508.88;;;8.94;89.78
21879;BME280;27908;42.708;23.278;2023-04-12T06:18:23;63496.81;;;9.07;88.81
21879;BME280;27908;42.708;23.278;2023-04-12T06:20:48;63465.69;;;8.94;89.76
21879;BME280;27908;42.708;23.278;2023-04-12T06:23:14;63530.34;;;9.05;88.57
21879;BME280;27908;42.708;23.278;2023-04-12T06:25:39;63531.34;;;9.04;89.20
21879;BME280;27908;42.708;23.278;2023-04-12T06:28:05;63575.81;;;9.24;88.73
21879;BME280;27908;42.708;23.278;2023-04-12T06:30:30;63529.56;;;9.26;86.57
21879;BME280;27908;42.708;23.278;2023-04-12T06:32:56;63574.81;;;9.23;86.42
21879;BME280;27908;42.708;23.278;2023-04-12T06:35:22;63618.44;;;9.56;86.72
21879;BME280;27908;42.708;23.278;2023-04-12T06:37:48;63603.31;;;9.70;84.15
21879;BME280;27908;42.708;23.278;2023-04-12T06:40:14;63586.56;;;9.71;83.83
21879;BME280;27908;42.708;23.278;2023-04-12T06:42:39;63638.94;;;9.70;84.06
21879;BME280;27908;42.708;23.278;2023-04-12T06:45:05;63589.47;;;9.59;84.18
21879;BME280;27908;42.708;23.278;2023-04-12T06:47:31;63623.06;;;9.62;84.96
21879;BME280;27908;42.708;23.278;2023-04-12T06:49:56;63631.78;;;9.66;84.18
21879;BME280;27908;42.708;23.278;2023-04-12T06:52:25;63573.72;;;9.61;84.69
21879;BME280;27908;42.708;23.278;2023-04-12T06:54:51;63605.88;;;9.70;82.97
21879;BME280;27908;42.708;23.278;2023-04-12T06:57:17;63596.56;;;9.59;85.63
21879;BME280;27908;42.708;23.278;2023-04-12T06:59:43;63584.44;;;9.64;85.42
21879;BME280;27908;42.708;23.278;2023-04-12T07:02:08;63592.06;;;9.64;84.06
21879;BME280;27908;42.708;23.278;2023-04-12T07:04:33;63628.19;;;9.65;85.70
21879;BME280;27908;42.708;23.278;2023-04-12T07:06:59;63634.22;;;9.58;83.36
21879;BME280;27908;42.708;23.278;2023-04-12T07:09:25;63599.09;;;9.57;83.55
21879;BME280;27908;42.708;23.278;2023-04-12T07:11:50;63636.19;;;9.94;84.74
21879;BME280;27908;42.708;23.278;2023-04-12T07:14:16;63642.00;;;10.12;80.81
21879;BME280;27908;42.708;23.278;2023-04-12T07:16:42;63694.06;;;10.23;80.62
21879;BME280;27908;42.708;23.278;2023-04-12T07:19:07;63706.47;;;10.40;78.72
21879;BME280;27908;42.708;23.278;2023-04-12T07:21:33;63727.47;;;10.48;78.41
21879;BME280;27908;42.708;23.278;2023-04-12T07:23:58;63755.59;;;10.58;81.02
21879;BME280;27908;42.708;23.278;2023-04-12T07:26:24;63772.59;;;10.71;79.68
21879;BME280;27908;42.708;23.278;2023-04-12T07:28:50;63761.75;;;10.59;78.67
21879;BME280;27908;42.708;23.278;2023-04-12T07:31:16;63682.47;;;10.34;79.30
21879;BME280;27908;42.708;23.278;2023-04-12T07:33:42;63685.16;;;10.46;80.31
21879;BME280;27908;42.708;23.278;2023-04-12T07:36:07;63692.75;;;10.41;79.59
21879;BME280;27908;42.708;23.278;2023-04-12T07:38:33;63695.03;;;10.63;76.58
21879;BME280;27908;42.708;23.278;2023-04-12T07:40:58;63770.66;;;10.79;76.43
21879;BME280;27908;42.708;23.278;2023-04-12T07:43:24;63788.13;;;10.91;76.29
21879;BME280;27908;42.708;23.278;2023-04-12T07:45:49;63769.38;;;11.02;74.00
21879;BME280;27908;42.708;23.278;2023-04-12T07:48:15;63845.06;;;11.21;67.67
21879;BME280;27908;42.708;23.278;2023-04-12T07:50:41;63791.72;;;10.95;68.70
21879;BME280;27908;42.708;23.278;2023-04-12T07:53:26;63837.31;;;11.11;66.73
21879;BME280;27908;42.708;23.278;2023-04-12T07:55:53;63830.75;;;11.17;67.43
21879;BME280;27908;42.708;23.278;2023-04-12T07:58:20;63760.47;;;10.82;66.13
21879;BME280;27908;42.708;23.278;2023-04-12T08:00:46;63750.28;;;10.84;65.52
21879;BME280;27908;42.708;23.278;2023-04-12T08:03:12;63731.41;;;10.81;66.72
21879;BME280;27908;42.708;23.278;2023-04-12T08:05:38;63733.91;;;10.78;66.42
21879;BME280;27908;42.708;23.278;2023-04-12T08:08:05;63771.53;;;10.70;67.11
21879;BME280;27908;42.708;23.278;2023-04-12T08:10:30;63715.97;;;10.68;67.10
21879;BME280;27908;42.708;23.278;2023-04-12T08:12:56;63713.22;;;10.49;66.12
21879;BME280;27908;42.708;23.278;2023-04-12T08:15:22;63630.97;;;10.29;65.37
21879;BME280;27908;42.708;23.278;2023-04-12T08:17:47;63704.47;;;10.40;64.54
21879;BME280;27908;42.708;23.278;2023-04-12T08:20:13;63708.22;;;10.59;66.11
21879;BME280;27908;42.708;23.278;2023-04-12T08:22:42;63729.53;;;10.50;62.30
21879;BME280;27908;42.708;23.278;2023-04-12T08:25:08;63812.69;;;11.00;64.45
21879;BME280;27908;42.708;23.278;2023-04-12T08:27:34;63849.19;;;11.25;60.99
21879;BME280;27908;42.708;23.278;2023-04-12T08:30:01;63824.81;;;11.34;58.10
21879;BME280;27908;42.708;23.278;2023-04-12T08:32:26;63867.66;;;11.33;57.33
21879;BME280;27908;42.708;23.278;2023-04-12T08:34:51;63808.34;;;11.23;57.72
21879;BME280;27908;42.708;23.278;2023-04-12T08:37:17;63838.63;;;11.37;56.36
21879;BME280;27908;42.708;23.278;2023-04-12T08:39:42;63855.66;;;11.53;56.30
21879;BME280;27908;42.708;23.278;2023-04-12T08:42:09;63845.81;;;11.41;56.43
21879;BME280;27908;42.708;23.278;2023-04-12T08:44:37;63840.28;;;11.46;55.09
21879;BME280;27908;42.708;23.278;2023-04-12T08:47:04;63871.94;;;11.47;55.68
21879;BME280;27908;42.708;23.278;2023-04-12T08:49:30;63854.06;;;11.47;56.63
21879;BME280;27908;42.708;23.278;2023-04-12T08:51:59;63852.69;;;11.60;56.43
21879;BME280;27908;42.708;23.278;2023-04-12T08:54:25;63922.34;;;11.80;55.70
21879;BME280;27908;42.708;23.278;2023-04-12T08:56:53;63946.00;;;11.96;55.40
21879;BME280;27908;42.708;23.278;2023-04-12T08:59:22;63915.47;;;12.06;55.84
21879;BME280;27908;42.708;23.278;2023-04-12T09:01:48;63957.59;;;12.26;54.25
21879;BME280;27908;42.708;23.278;2023-04-12T09:04:14;63979.44;;;12.15;53.21
21879;BME280;27908;42.708;23.278;2023-04-12T09:06:39;63944.19;;;12.13;54.80
21879;BME280;27908;42.708;23.278;2023-04-12T09:09:06;64002.59;;;12.28;53.31
21879;BME280;27908;42.708;23.278;2023-04-12T09:11:31;63983.69;;;12.29;53.80
21879;BME280;27908;42.708;23.278;2023-04-12T09:13:57;64003.88;;;12.51;54.44
21879;BME280;27908;42.708;23.278;2023-04-12T09:16:39;64071.13;;;12.74;51.43
21879;BME280;27908;42.708;23.278;2023-04-12T09:19:05;64006.50;;;12.58;50.46
21879;BME280;27908;42.708;23.278;2023-04-12T09:21:32;64009.22;;;12.73;50.83
21879;BME280;27908;42.708;23.278;2023-04-12T09:24:09;64014.63;;;12.51;47.51
21879;BME280;27908;42.708;23.278;2023-04-12T09:26:35;63960.84;;;12.44;49.30
21879;BME280;27908;42.708;23.278;2023-04-12T09:29:02;64098.66;;;12.66;49.92
21879;BME280;27908;42.708;23.278;2023-04-12T09:31:27;64021.19;;;12.43;47.57
21879;BME280;27908;42.708;23.278;2023-04-12T09:34:04;64003.81;;;12.46;46.87
21879;BME280;27908;42.708;23.278;2023-04-12T09:36:40;64033.19;;;12.64;46.52
21879;BME280;27908;42.708;23.278;2023-04-12T09:39:06;64007.97;;;12.50;46.83
21879;BME280;27908;42.708;23.278;2023-04-12T09:41:32;64064.16;;;12.89;48.52
21879;BME280;27908;42.708;23.278;2023-04-12T09:43:58;64076.47;;;12.91;47.56
21879;BME280;27908;42.708;23.278;2023-04-12T09:46:24;64092.09;;;13.15;46.64
21879;BME280;27908;42.708;23.278;2023-04-12T09:48:52;64189.34;;;13.18;48.99
21879;BME280;27908;42.708;23.278;2023-04-12T09:51:32;64088.19;;;12.87;49.66
21879;BME280;27908;42.708;23.278;2023-04-12T09:56:23;64052.44;;;12.92;45.45
21879;BME280;27908;42.708;23.278;2023-04-12T09:58:52;64042.78;;;12.98;45.04
21879;BME280;27908;42.708;23.278;2023-04-12T10:01:20;64014.97;;;12.81;43.59
21879;BME280;27908;42.708;23.278;2023-04-12T10:03:47;64080.63;;;12.97;43.96
21879;BME280;27908;42.708;23.278;2023-04-12T10:06:13;64104.97;;;13.23;42.99
21879;BME280;27908;42.708;23.278;2023-04-12T10:08:39;64098.31;;;13.24;41.93
21879;BME280;27908;42.708;23.278;2023-04-12T10:11:05;64126.19;;;13.43;42.69
21879;BME280;27908;42.708;23.278;2023-04-12T10:13:31;64146.22;;;13.50;42.32
21879;BME280;27908;42.708;23.278;2023-04-12T10:15:59;64128.66;;;13.36;39.76
21879;BME280;27908;42.708;23.278;2023-04-12T10:18:25;64097.66;;;13.11;38.59
21879;BME280;27908;42.708;23.278;2023-04-12T10:20:51;64104.94;;;13.20;39.61
21879;BME280;27908;42.708;23.278;2023-04-12T10:23:17;64126.78;;;13.51;39.65
21879;BME280;27908;42.708;23.278;2023-04-12T10:25:45;64159.25;;;13.70;40.26
21879;BME280;27908;42.708;23.278;2023-04-12T10:28:17;64181.38;;;13.79;41.05
21879;BME280;27908;42.708;23.278;2023-04-12T10:30:44;64177.38;;;13.43;38.99
21879;BME280;27908;42.708;23.278;2023-04-12T10:33:13;64146.84;;;13.60;40.51
21879;BME280;27908;42.708;23.278;2023-04-12T10:36:04;64211.81;;;13.95;40.58
21879;BME280;27908;42.708;23.278;2023-04-12T10:39:09;64218.63;;;14.09;38.26
21879;BME280;27908;42.708;23.278;2023-04-12T10:41:35;64257.00;;;14.02;39.58
21879;BME280;27908;42.708;23.278;2023-04-12T10:44:22;64249.00;;;14.21;39.06
21879;BME280;27908;42.708;23.278;2023-04-12T10:46:49;64250.59;;;14.27;37.74
21879;BME280;27908;42.708;23.278;2023-04-12T10:49:15;64304.13;;;14.42;36.00
21879;BME280;27908;42.708;23.278;2023-04-12T10:54:31;64227.44;;;14.18;38.15
21879;BME280;27908;42.708;23.278;2023-04-12T10:56:59;64219.16;;;14.12;36.54
21879;BME280;27908;42.708;23.278;2023-04-12T10:59:25;64253.16;;;14.25;35.80
21879;BME280;27908;42.708;23.278;2023-04-12T11:04:31;64275.72;;;14.27;36.10
21879;BME280;27908;42.708;23.278;2023-04-12T11:07:06;64312.88;;;14.45;36.30
21879;BME280;27908;42.708;23.278;2023-04-12T11:14:32;64322.84;;;14.64;36.54
21879;BME280;27908;42.708;23.278;2023-04-12T11:19:31;64253.72;;;14.30;36.94
21879;BME280;27908;42.708;23.278;2023-04-12T11:21:58;64306.88;;;14.61;37.36
21879;BME280;27908;42.708;23.278;2023-04-12T11:24:25;64303.59;;;14.41;35.05
21879;BME280;27908;42.708;23.278;2023-04-12T11:26:51;64252.28;;;14.41;35.87
21879;BME280;27908;42.708;23.278;2023-04-12T11:29:24;64236.44;;;14.46;37.79
21879;BME280;27908;42.708;23.278;2023-04-12T11:31:49;64326.50;;;14.70;35.26
21879;BME280;27908;42.708;23.278;2023-04-12T11:34:18;64234.47;;;14.05;35.74
21879;BME280;27908;42.708;23.278;2023-04-12T11:36:45;64265.72;;;14.49;35.81
21879;BME280;27908;42.708;23.278;2023-04-12T11:39:11;64366.28;;;14.96;37.20
21879;BME280;27908;42.708;23.278;2023-04-12T11:41:45;64314.06;;;14.58;35.27
21879;BME280;27908;42.708;23.278;2023-04-12T11:44:11;64333.75;;;14.33;35.19
21879;BME280;27908;42.708;23.278;2023-04-12T11:46:37;64248.94;;;14.14;35.73
21879;BME280;27908;42.708;23.278;2023-04-12T11:49:03;64284.00;;;14.32;36.85
21879;BME280;27908;42.708;23.278;2023-04-12T11:51:29;64298.53;;;14.46;35.78
21879;BME280;27908;42.708;23.278;2023-04-12T11:53:55;64311.91;;;14.52;36.74
21879;BME280;27908;42.708;23.278;2023-04-12T11:56:22;64325.91;;;14.62;35.88
21879;BME280;27908;42.708;23.278;2023-04-12T11:58:48;64268.63;;;14.35;36.75
21879;BME280;27908;42.708;23.278;2023-04-12T12:01:18;64303.59;;;14.41;36.06
21879;BME280;27908;42.708;23.278;2023-04-12T12:03:44;64302.63;;;14.48;37.36
21879;BME280;27908;42.708;23.278;2023-04-12T12:06:11;64371.59;;;14.67;37.26
21879;BME280;27908;42.708;23.278;2023-04-12T12:08:38;64336.44;;;14.87;37.25
21879;BME280;27908;42.708;23.278;2023-04-12T12:11:04;64423.25;;;14.94;36.17
21879;BME280;27908;42.708;23.278;2023-04-12T12:13:45;64241.47;;;14.36;35.06
21879;BME280;27908;42.708;23.278;2023-04-12T12:16:11;64278.34;;;14.32;37.44
21879;BME280;27908;42.708;23.278;2023-04-12T12:18:41;64304.78;;;14.57;38.09
21879;BME280;27908;42.708;23.278;2023-04-12T12:21:08;64332.97;;;14.52;36.48
21879;BME280;27908;42.708;23.278;2023-04-12T12:23:34;64360.50;;;14.83;38.55
21879;BME280;27908;42.708;23.278;2023-04-12T12:26:01;64355.81;;;14.76;37.09
21879;BME280;27908;42.708;23.278;2023-04-12T12:28:28;64329.84;;;14.49;36.42
21879;BME280;27908;42.708;23.278;2023-04-12T12:30:55;64402.03;;;14.79;36.54
21879;BME280;27908;42.708;23.278;2023-04-12T12:33:22;64392.41;;;14.89;37.24
21879;BME280;27908;42.708;23.278;2023-04-12T12:35:55;64469.25;;;15.16;38.04
21879;BME280;27908;42.708;23.278;2023-04-12T12:38:20;64474.22;;;15.45;37.22
21879;BME280;27908;42.708;23.278;2023-04-12T12:40:45;64451.53;;;15.38;36.39
21879;BME280;27908;42.708;23.278;2023-04-12T12:43:17;64437.47;;;15.22;35.11
21879;BME280;27908;42.708;23.278;2023-04-12T12:45:43;64417.47;;;15.25;36.17
21879;BME280;27908;42.708;23.278;2023-04-12T12:48:09;64445.78;;;15.30;35.78
21879;BME280;27908;42.708;23.278;2023-04-12T12:50:35;64457.28;;;15.48;35.17
21879;BME280;27908;42.708;23.278;2023-04-12T12:53:02;64435.88;;;15.18;35.90
21879;BME280;27908;42.708;23.278;2023-04-12T12:55:29;64306.94;;;14.66;35.69
21879;BME280;27908;42.708;23.278;2023-04-12T12:57:56;64418.50;;;15.24;35.55
21879;BME280;27908;42.708;23.278;2023-04-12T13:00:24;64463.81;;;15.35;35.64
21879;BME280;27908;42.708;23.278;2023-04-12T13:02:50;64451.84;;;15.21;35.59
21879;BME280;27908;42.708;23.278;2023-04-12T13:05:16;64469.16;;;15.52;35.92
21879;BME280;27908;42.708;23.278;2023-04-12T13:07:42;64522.38;;;15.76;36.61
21879;BME280;27908;42.708;23.278;2023-04-12T13:10:08;64510.03;;;15.76;35.07
21879;BME280;27908;42.708;23.278;2023-04-12T13:12:34;64453.75;;;15.55;35.35
21879;BME280;27908;42.708;23.278;2023-04-12T13:15:00;64432.41;;;15.27;34.79